sensor_id;sensor_type;location;lat;lon;timestamp;pressure;altitude;pressure_sealevel;temperature
78905;BMP280;68291;49.602;8.722;2023-03-02T00:01:15;99914.69;;;6.00
78905;BMP280;68291;49.602;8.722;2023-03-02T00:04:13;99914.00;;;5.93
78905;BMP280;68291;49.602;8.722;2023-03-02T00:07:08;99920.06;;;5.88
78905;BMP280;68291;49.602;8.722;2023-03-02T00:09:44;99911.53;;;5.89
78905;BMP280;68291;49.602;8.722;2023-03-02T00:12:33;99915.81;;;5.88
78905;BMP280;68291;49.602;8.722;2023-03-02T00:15:05;99919.13;;;5.90
78905;BMP280;68291;49.602;8.722;2023-03-02T00:17:37;99902.16;;;5.88
78905;BMP280;68291;49.602;8.722;2023-03-02T00:20:26;99913.31;;;5.84
78905;BMP280;68291;49.602;8.722;2023-03-02T00:23:30;99908.28;;;5.81
78905;BMP280;68291;49.602;8.722;2023-03-02T00:26:01;99913.31;;;5.84
78905;BMP280;68291;49.602;8.722;2023-03-02T00:28:52;99904.78;;;5.86
78905;BMP280;68291;49.602;8.722;2023-03-02T00:31:34;99904.78;;;5.85
78905;BMP280;68291;49.602;8.722;2023-03-02T00:34:31;99907.44;;;5.80
78905;BMP280;68291;49.602;8.722;2023-03-02T00:37:06;99905.72;;;5.82
78905;BMP280;68291;49.602;8.722;2023-03-02T00:39:55;99895.41;;;5.85
78905;BMP280;68291;49.602;8.722;2023-03-02T00:42:30;99891.91;;;5.89
78905;BMP280;68291;49.602;8.722;2023-03-02T00:45:22;99898.91;;;5.81
78905;BMP280;68291;49.602;8.722;2023-03-02T00:48:08;99894.00;;;5.70
78905;BMP280;68291;49.602;8.722;2023-03-02T00:51:01;99887.34;;;5.63
78905;BMP280;68291;49.602;8.722;2023-03-02T00:53:45;99890.06;;;5.54
78905;BMP280;68291;49.602;8.722;2023-03-02T00:56:34;99878.34;;;5.45
78905;BMP280;68291;49.602;8.722;2023-03-02T00:59:15;99884.38;;;5.40
78905;BMP280;68291;49.602;8.722;2023-03-02T01:02:18;99878.47;;;5.38
78905;BMP280;68291;49.602;8.722;2023-03-02T01:05:13;99876.19;;;5.23
78905;BMP280;68291;49.602;8.722;2023-03-02T01:08:02;99871.16;;;5.20
78905;BMP280;68291;49.602;8.722;2023-03-02T01:10:49;99874.63;;;5.16
78905;BMP280;68291;49.602;8.722;2023-03-02T01:13:36;99868.75;;;5.13
78905;BMP280;68291;49.602;8.722;2023-03-02T01:16:33;99864.50;;;5.13
78905;BMP280;68291;49.602;8.722;2023-03-02T01:19:26;99859.44;;;5.10
78905;BMP280;68291;49.602;8.722;2023-03-02T01:22:22;99857.78;;;5.07
78905;BMP280;68291;49.602;8.722;2023-03-02T01:25:06;99854.41;;;5.08
78905;BMP280;68291;49.602;8.722;2023-03-02T01:27:56;99856.94;;;5.09
78905;BMP280;68291;49.602;8.722;2023-03-02T01:30:35;99850.84;;;5.14
78905;BMP280;68291;49.602;8.722;2023-03-02T01:33:24;99847.47;;;5.12
78905;BMP280;68291;49.602;8.722;2023-03-02T01:36:00;99844.13;;;5.10
78905;BMP280;68291;49.602;8.722;2023-03-02T01:38:40;99841.69;;;5.05
78905;BMP280;68291;49.602;8.722;2023-03-02T01:41:16;99833.25;;;5.00
78905;BMP280;68291;49.602;8.722;2023-03-02T01:43:58;99834.25;;;4.93
78905;BMP280;68291;49.602;8.722;2023-03-02T01:46:31;99832.59;;;4.92
78905;BMP280;68291;49.602;8.722;2023-03-02T01:49:30;99823.97;;;4.96
78905;BMP280;68291;49.602;8.722;2023-03-02T01:52:18;99824.78;;;4.98
78905;BMP280;68291;49.602;8.722;2023-03-02T01:55:01;99827.34;;;4.99
78905;BMP280;68291;49.602;8.722;2023-03-02T01:57:45;99826.44;;;5.00
78905;BMP280;68291;49.602;8.722;2023-03-02T02:00:27;99828.06;;;5.04
78905;BMP280;68291;49.602;8.722;2023-03-02T02:03:34;99822.06;;;5.07
78905;BMP280;68291;49.602;8.722;2023-03-02T02:06:24;99816.13;;;5.08
78905;BMP280;68291;49.602;8.722;2023-03-02T02:09:17;99808.38;;;5.10
78905;BMP280;68291;49.602;8.722;2023-03-02T02:12:14;99808.38;;;5.12
78905;BMP280;68291;49.602;8.722;2023-03-02T02:14:49;99809.38;;;5.04
78905;BMP280;68291;49.602;8.722;2023-03-02T02:17:44;99809.44;;;5.01
78905;BMP280;68291;49.602;8.722;2023-03-02T02:20:40;99810.25;;;5.03
78905;BMP280;68291;49.602;8.722;2023-03-02T02:23:41;99811.94;;;5.04
78905;BMP280;68291;49.602;8.722;2023-03-02T02:26:29;99803.44;;;5.05
78905;BMP280;68291;49.602;8.722;2023-03-02T02:29:13;99801.66;;;5.07
78905;BMP280;68291;49.602;8.722;2023-03-02T02:32:05;99803.25;;;5.12
78905;BMP280;68291;49.602;8.722;2023-03-02T02:35:01;99805.69;;;5.18
78905;BMP280;68291;49.602;8.722;2023-03-02T02:37:40;99803.06;;;5.22
78905;BMP280;68291;49.602;8.722;2023-03-02T02:43:41;99800.41;;;5.28
78905;BMP280;68291;49.602;8.722;2023-03-02T02:46:36;99793.66;;;5.24
78905;BMP280;68291;49.602;8.722;2023-03-02T02:49:24;99792.13;;;5.16
78905;BMP280;68291;49.602;8.722;2023-03-02T02:51:57;99791.44;;;5.07
78905;BMP280;68291;49.602;8.722;2023-03-02T02:54:29;99796.59;;;5.05
78905;BMP280;68291;49.602;8.722;2023-03-02T02:57:08;99802.44;;;5.10
78905;BMP280;68291;49.602;8.722;2023-03-02T03:00:18;99802.25;;;5.19
78905;BMP280;68291;49.602;8.722;2023-03-02T03:03:26;99796.16;;;5.26
78905;BMP280;68291;49.602;8.722;2023-03-02T03:06:16;99787.63;;;5.28
78905;BMP280;68291;49.602;8.722;2023-03-02T03:09:01;99801.31;;;5.24
78905;BMP280;68291;49.602;8.722;2023-03-02T03:11:49;99804.69;;;5.26
78905;BMP280;68291;49.602;8.722;2023-03-02T03:14:55;99806.34;;;5.27
78905;BMP280;68291;49.602;8.722;2023-03-02T03:18:02;99807.25;;;5.26
78905;BMP280;68291;49.602;8.722;2023-03-02T03:20:59;99790.97;;;5.30
78905;BMP280;68291;49.602;8.722;2023-03-02T03:23:41;99793.47;;;5.33
78905;BMP280;68291;49.602;8.722;2023-03-02T03:26:39;99797.66;;;5.37
78905;BMP280;68291;49.602;8.722;2023-03-02T03:29:26;99797.56;;;5.40
78905;BMP280;68291;49.602;8.722;2023-03-02T03:32:16;99799.25;;;5.41
78905;BMP280;68291;49.602;8.722;2023-03-02T03:35:00;99794.22;;;5.38
78905;BMP280;68291;49.602;8.722;2023-03-02T03:37:42;99794.28;;;5.35
78905;BMP280;68291;49.602;8.722;2023-03-02T03:40:27;99791.69;;;5.37
78905;BMP280;68291;49.602;8.722;2023-03-02T03:43:09;99783.22;;;5.35
78905;BMP280;68291;49.602;8.722;2023-03-02T03:45:49;99792.53;;;5.37
78905;BMP280;68291;49.602;8.722;2023-03-02T03:48:38;99789.19;;;5.35
78905;BMP280;68291;49.602;8.722;2023-03-02T03:51:31;99794.41;;;5.29
78905;BMP280;68291;49.602;8.722;2023-03-02T03:54:13;99789.47;;;5.22
78905;BMP280;68291;49.602;8.722;2023-03-02T03:56:56;99782.75;;;5.16
78905;BMP280;68291;49.602;8.722;2023-03-02T03:59:38;99791.22;;;5.18
78905;BMP280;68291;49.602;8.722;2023-03-02T04:02:14;99791.28;;;5.15
78905;BMP280;68291;49.602;8.722;2023-03-02T04:05:07;99787.03;;;5.16
78905;BMP280;68291;49.602;8.722;2023-03-02T04:07:56;99796.25;;;5.21
78905;BMP280;68291;49.602;8.722;2023-03-02T04:10:35;99791.06;;;5.26
78905;BMP280;68291;49.602;8.722;2023-03-02T04:13:24;99779.09;;;5.29
78905;BMP280;68291;49.602;8.722;2023-03-02T04:16:11;99781.63;;;5.31
78905;BMP280;68291;49.602;8.722;2023-03-02T04:19:07;99785.84;;;5.32
78905;BMP280;68291;49.602;8.722;2023-03-02T04:21:53;99792.66;;;5.31
78905;BMP280;68291;49.602;8.722;2023-03-02T04:25:08;99802.91;;;5.30
78905;BMP280;68291;49.602;8.722;2023-03-02T04:27:53;99798.72;;;5.26
78905;BMP280;68291;49.602;8.722;2023-03-02T04:30:41;99796.25;;;5.21
78905;BMP280;68291;49.602;8.722;2023-03-02T04:33:13;99800.63;;;5.15
78905;BMP280;68291;49.602;8.722;2023-03-02T04:35:45;99797.38;;;5.09
78905;BMP280;68291;49.602;8.722;2023-03-02T04:38:38;99805.13;;;5.04
78905;BMP280;68291;49.602;8.722;2023-03-02T04:42:05;99808.56;;;5.02
78905;BMP280;68291;49.602;8.722;2023-03-02T04:44:59;99803.47;;;5.02
78905;BMP280;68291;49.602;8.722;2023-03-02T04:47:36;99801.66;;;5.07
78905;BMP280;68291;49.602;8.722;2023-03-02T04:50:20;99800.72;;;5.10
78905;BMP280;68291;49.602;8.722;2023-03-02T04:53:20;99802.47;;;5.09
78905;BMP280;68291;49.602;8.722;2023-03-02T04:56:01;99806.72;;;5.10
78905;BMP280;68291;49.602;8.722;2023-03-02T04:58:33;99802.47;;;5.09
78905;BMP280;68291;49.602;8.722;2023-03-02T05:01:28;99806.72;;;5.10
78905;BMP280;68291;49.602;8.722;2023-03-02T05:04:19;99808.47;;;5.08
78905;BMP280;68291;49.602;8.722;2023-03-02T05:07:05;99808.47;;;5.06
78905;BMP280;68291;49.602;8.722;2023-03-02T05:09:51;99807.72;;;5.03
78905;BMP280;68291;49.602;8.722;2023-03-02T05:12:42;99804.44;;;4.96
78905;BMP280;68291;49.602;8.722;2023-03-02T05:15:47;99798.59;;;4.90
78905;BMP280;68291;49.602;8.722;2023-03-02T05:18:37;99791.88;;;4.86
78905;BMP280;68291;49.602;8.722;2023-03-02T05:21:25;99796.13;;;4.85
78905;BMP280;68291;49.602;8.722;2023-03-02T05:24:03;99792.88;;;4.77
78905;BMP280;68291;49.602;8.722;2023-03-02T05:26:35;99796.28;;;4.76
78905;BMP280;68291;49.602;8.722;2023-03-02T05:29:14;99797.97;;;4.79
78905;BMP280;68291;49.602;8.722;2023-03-02T05:32:12;99797.91;;;4.80
78905;BMP280;68291;49.602;8.722;2023-03-02T05:34:57;99792.88;;;4.77
78905;BMP280;68291;49.602;8.722;2023-03-02T05:37:38;99795.44;;;4.76
78905;BMP280;68291;49.602;8.722;2023-03-02T05:40:36;99794.72;;;4.70
78905;BMP280;68291;49.602;8.722;2023-03-02T05:43:10;99797.31;;;4.68
78905;BMP280;68291;49.602;8.722;2023-03-02T05:46:02;99797.41;;;4.62
78905;BMP280;68291;49.602;8.722;2023-03-02T05:48:57;99802.50;;;4.62
78905;BMP280;68291;49.602;8.722;2023-03-02T05:51:31;99807.53;;;4.65
78905;BMP280;68291;49.602;8.722;2023-03-02T05:54:26;99808.31;;;4.70
78905;BMP280;68291;49.602;8.722;2023-03-02T05:57:11;99804.00;;;4.72
78905;BMP280;68291;49.602;8.722;2023-03-02T05:59:52;99813.38;;;4.73
78905;BMP280;68291;49.602;8.722;2023-03-02T06:02:47;99809.09;;;4.74
78905;BMP280;68291;49.602;8.722;2023-03-02T06:05:38;99801.44;;;4.74
78905;BMP280;68291;49.602;8.722;2023-03-02T06:08:21;99808.25;;;4.75
78905;BMP280;68291;49.602;8.722;2023-03-02T06:10:55;99815.03;;;4.74
78905;BMP280;68291;49.602;8.722;2023-03-02T06:13:37;99815.09;;;4.71
78905;BMP280;68291;49.602;8.722;2023-03-02T06:16:10;99810.94;;;4.66
78905;BMP280;68291;49.602;8.722;2023-03-02T06:18:53;99811.84;;;4.63
78905;BMP280;68291;49.602;8.722;2023-03-02T06:21:55;99819.53;;;4.60
78905;BMP280;68291;49.602;8.722;2023-03-02T06:24:42;99823.75;;;4.61
78905;BMP280;68291;49.602;8.722;2023-03-02T06:27:42;99825.47;;;4.62
78905;BMP280;68291;49.602;8.722;2023-03-02T06:30:35;99828.88;;;4.61
78905;BMP280;68291;49.602;8.722;2023-03-02T06:33:15;99827.97;;;4.64
78905;BMP280;68291;49.602;8.722;2023-03-02T06:36:06;99836.41;;;4.67
78905;BMP280;68291;49.602;8.722;2023-03-02T06:39:00;99832.97;;;4.70
78905;BMP280;68291;49.602;8.722;2023-03-02T06:41:31;99831.22;;;4.73
78905;BMP280;68291;49.602;8.722;2023-03-02T06:44:13;99834.50;;;4.79
78905;BMP280;68291;49.602;8.722;2023-03-02T06:46:48;99836.91;;;4.87
78905;BMP280;68291;49.602;8.722;2023-03-02T06:49:26;99824.13;;;4.90
78905;BMP280;68291;49.602;8.722;2023-03-02T06:52:22;99833.31;;;4.98
78905;BMP280;68291;49.602;8.722;2023-03-02T06:55:23;99836.63;;;5.03
78905;BMP280;68291;49.602;8.722;2023-03-02T06:58:14;99837.34;;;5.10
78905;BMP280;68291;49.602;8.722;2023-03-02T07:01:10;99840.56;;;5.17
78905;BMP280;68291;49.602;8.722;2023-03-02T07:03:52;99838.78;;;5.22
78905;BMP280;68291;49.602;8.722;2023-03-02T07:06:39;99843.78;;;5.28
78905;BMP280;68291;49.602;8.722;2023-03-02T07:09:24;99841.06;;;5.36
78905;BMP280;68291;49.602;8.722;2023-03-02T07:12:22;99841.72;;;5.45
78905;BMP280;68291;49.602;8.722;2023-03-02T07:14:58;99839.97;;;5.48
78905;BMP280;68291;49.602;8.722;2023-03-02T07:17:44;99843.22;;;5.55
78905;BMP280;68291;49.602;8.722;2023-03-02T07:20:17;99834.63;;;5.59
78905;BMP280;68291;49.602;8.722;2023-03-02T07:23:05;99841.31;;;5.64
78905;BMP280;68291;49.602;8.722;2023-03-02T07:25:55;99838.66;;;5.69
78905;BMP280;68291;49.602;8.722;2023-03-02T07:28:53;99834.22;;;5.79
78905;BMP280;68291;49.602;8.722;2023-03-02T07:31:33;99826.31;;;5.90
78905;BMP280;68291;49.602;8.722;2023-03-02T07:34:13;99830.38;;;5.98
78905;BMP280;68291;49.602;8.722;2023-03-02T07:36:53;99834.47;;;6.05
78905;BMP280;68291;49.602;8.722;2023-03-02T07:39:30;99823.09;;;6.18
78905;BMP280;68291;49.602;8.722;2023-03-02T07:42:27;99828.84;;;6.27
78905;BMP280;68291;49.602;8.722;2023-03-02T07:45:17;99833.69;;;6.38
78905;BMP280;68291;49.602;8.722;2023-03-02T07:47:57;99826.72;;;6.44
78905;BMP280;68291;49.602;8.722;2023-03-02T07:50:43;99834.22;;;6.51
78905;BMP280;68291;49.602;8.722;2023-03-02T07:53:16;99832.38;;;6.56
78905;BMP280;68291;49.602;8.722;2023-03-02T07:55:56;99829.69;;;6.62
78905;BMP280;68291;49.602;8.722;2023-03-02T07:58:36;99829.47;;;6.70
78905;BMP280;68291;49.602;8.722;2023-03-02T08:01:19;99819.94;;;6.76
78905;BMP280;68291;49.602;8.722;2023-03-02T08:04:03;99819.63;;;6.88
78905;BMP280;68291;49.602;8.722;2023-03-02T08:06:45;99822.75;;;6.99
78905;BMP280;68291;49.602;8.722;2023-03-02T08:09:28;99820.75;;;7.10
78905;BMP280;68291;49.602;8.722;2023-03-02T08:12:02;99820.50;;;7.18
78905;BMP280;68291;49.602;8.722;2023-03-02T08:14:59;99818.50;;;7.28
78905;BMP280;68291;49.602;8.722;2023-03-02T08:17:54;99818.19;;;7.40
78905;BMP280;68291;49.602;8.722;2023-03-02T08:20:47;99810.25;;;7.47
78905;BMP280;68291;49.602;8.722;2023-03-02T08:23:39;99812.59;;;7.56
78905;BMP280;68291;49.602;8.722;2023-03-02T08:26:36;99814.03;;;7.64
78905;BMP280;68291;49.602;8.722;2023-03-02T08:29:19;99813.72;;;7.75
78905;BMP280;68291;49.602;8.722;2023-03-02T08:32:05;99811.66;;;7.85
78905;BMP280;68291;49.602;8.722;2023-03-02T08:34:43;99813.09;;;7.95
78905;BMP280;68291;49.602;8.722;2023-03-02T08:37:46;99804.31;;;8.02
78905;BMP280;68291;49.602;8.722;2023-03-02T08:40:30;99808.25;;;8.14
78905;BMP280;68291;49.602;8.722;2023-03-02T08:43:13;99805.47;;;8.21
78905;BMP280;68291;49.602;8.722;2023-03-02T08:45:52;99800.94;;;8.29
78905;BMP280;68291;49.602;8.722;2023-03-02T08:48:40;99801.50;;;8.37
78905;BMP280;68291;49.602;8.722;2023-03-02T08:51:54;99797.97;;;8.41
78905;BMP280;68291;49.602;8.722;2023-03-02T08:54:53;99800.22;;;8.50
78905;BMP280;68291;49.602;8.722;2023-03-02T08:57:25;99793.69;;;8.65
78905;BMP280;68291;49.602;8.722;2023-03-02T08:59:56;99793.19;;;8.80
78905;BMP280;68291;49.602;8.722;2023-03-02T09:02:43;99795.16;;;8.98
78905;BMP280;68291;49.602;8.722;2023-03-02T09:05:15;99777.63;;;9.09
78905;BMP280;68291;49.602;8.722;2023-03-02T09:08:27;99779.66;;;9.23
78905;BMP280;68291;49.602;8.722;2023-03-02T09:11:21;99786.94;;;9.34
78905;BMP280;68291;49.602;8.722;2023-03-02T09:14:12;99778.97;;;9.41
78905;BMP280;68291;49.602;8.722;2023-03-02T09:17:09;99786.41;;;9.49
78905;BMP280;68291;49.602;8.722;2023-03-02T09:19:54;99780.09;;;9.57
78905;BMP280;68291;49.602;8.722;2023-03-02T09:22:43;99785.78;;;9.65
78905;BMP280;68291;49.602;8.722;2023-03-02T09:25:41;99765.69;;;9.74
78905;BMP280;68291;49.602;8.722;2023-03-02T09:28:36;99771.44;;;9.81
78905;BMP280;68291;49.602;8.722;2023-03-02T09:31:12;99778.94;;;9.87
78905;BMP280;68291;49.602;8.722;2023-03-02T09:33:46;99775.25;;;9.93
78905;BMP280;68291;49.602;8.722;2023-03-02T09:36:26;99772.47;;;9.99
78905;BMP280;68291;49.602;8.722;2023-03-02T09:39:12;99778.25;;;10.04
78905;BMP280;68291;49.602;8.722;2023-03-02T09:42:30;99777.09;;;10.11
78905;BMP280;68291;49.602;8.722;2023-03-02T09:45:57;99781.91;;;10.20
78905;BMP280;68291;49.602;8.722;2023-03-02T09:48:42;99776.44;;;10.27
78905;BMP280;68291;49.602;8.722;2023-03-02T09:51:41;99771.94;;;10.32
78905;BMP280;68291;49.602;8.722;2023-03-02T09:54:23;99775.25;;;10.36
78905;BMP280;68291;49.602;8.722;2023-03-02T09:56:57;99775.19;;;10.37
78905;BMP280;68291;49.602;8.722;2023-03-02T09:59:57;99769.00;;;10.41
78905;BMP280;68291;49.602;8.722;2023-03-02T10:03:00;99777.13;;;10.52
78905;BMP280;68291;49.602;8.722;2023-03-02T10:05:53;99771.69;;;10.59
78905;BMP280;68291;49.602;8.722;2023-03-02T10:08:44;99770.38;;;10.69
78905;BMP280;68291;49.602;8.722;2023-03-02T10:11:46;99769.03;;;10.81
78905;BMP280;68291;49.602;8.722;2023-03-02T10:14:37;99772.06;;;10.90
78905;BMP280;68291;49.602;8.722;2023-03-02T10:17:55;99772.44;;;11.01
78905;BMP280;68291;49.602;8.722;2023-03-02T10:20:45;99766.81;;;11.11
78905;BMP280;68291;49.602;8.722;2023-03-02T10:23:51;99763.78;;;11.22
78905;BMP280;68291;49.602;8.722;2023-03-02T10:26:48;99752.28;;;11.28
78905;BMP280;68291;49.602;8.722;2023-03-02T10:29:50;99757.03;;;11.37
78905;BMP280;68291;49.602;8.722;2023-03-02T10:32:43;99751.38;;;11.49
78905;BMP280;68291;49.602;8.722;2023-03-02T10:35:26;99749.25;;;11.57
78905;BMP280;68291;49.602;8.722;2023-03-02T10:38:12;99741.03;;;11.67
78905;BMP280;68291;49.602;8.722;2023-03-02T10:40:57;99748.28;;;11.78
78905;BMP280;68291;49.602;8.722;2023-03-02T10:43:47;99751.19;;;11.89
78905;BMP280;68291;49.602;8.722;2023-03-02T10:46:42;99750.97;;;11.93
78905;BMP280;68291;49.602;8.722;2023-03-02T10:49:41;99748.94;;;11.99
78905;BMP280;68291;49.602;8.722;2023-03-02T10:53:04;99748.66;;;12.05
78905;BMP280;68291;49.602;8.722;2023-03-02T10:55:56;99735.53;;;12.10
78905;BMP280;68291;49.602;8.722;2023-03-02T10:58:37;99739.44;;;12.18
78905;BMP280;68291;49.602;8.722;2023-03-02T11:01:22;99732.13;;;12.26
78905;BMP280;68291;49.602;8.722;2023-03-02T11:04:03;99723.31;;;12.30
78905;BMP280;68291;49.602;8.722;2023-03-02T11:06:52;99717.72;;;12.39
78905;BMP280;68291;49.602;8.722;2023-03-02T11:09:34;99719.88;;;12.48
78905;BMP280;68291;49.602;8.722;2023-03-02T11:12:15;99712.47;;;12.57
78905;BMP280;68291;49.602;8.722;2023-03-02T11:15:20;99718.00;;;12.66
78905;BMP280;68291;49.602;8.722;2023-03-02T11:18:10;99719.41;;;12.73
78905;BMP280;68291;49.602;8.722;2023-03-02T11:20:58;99711.97;;;12.84
78905;BMP280;68291;49.602;8.722;2023-03-02T11:23:59;99707.97;;;12.94
78905;BMP280;68291;49.602;8.722;2023-03-02T11:26:54;99706.06;;;12.98
78905;BMP280;68291;49.602;8.722;2023-03-02T11:29:45;99709.31;;;13.01
78905;BMP280;68291;49.602;8.722;2023-03-02T11:32:26;99703.84;;;13.07
78905;BMP280;68291;49.602;8.722;2023-03-02T11:35:30;99703.75;;;13.08
78905;BMP280;68291;49.602;8.722;2023-03-02T11:38:31;99696.00;;;13.08
78905;BMP280;68291;49.602;8.722;2023-03-02T11:41:25;99700.88;;;13.14
78905;BMP280;68291;49.602;8.722;2023-03-02T11:44:18;99689.88;;;13.26
78905;BMP280;68291;49.602;8.722;2023-03-02T11:47:11;99688.22;;;13.40
78905;BMP280;68291;49.602;8.722;2023-03-02T11:49:47;99687.88;;;13.46
78905;BMP280;68291;49.602;8.722;2023-03-02T11:52:31;99686.72;;;13.52
78905;BMP280;68291;49.602;8.722;2023-03-02T11:55:21;99683.94;;;13.55
78905;BMP280;68291;49.602;8.722;2023-03-02T11:57:54;99678.69;;;13.56
78905;BMP280;68291;49.602;8.722;2023-03-02T12:00:51;99666.34;;;13.61
78905;BMP280;68291;49.602;8.722;2023-03-02T12:03:40;99672.59;;;13.72
78905;BMP280;68291;49.602;8.722;2023-03-02T12:06:38;99665.94;;;13.68
78905;BMP280;68291;49.602;8.722;2023-03-02T12:09:36;99662.25;;;13.72
78905;BMP280;68291;49.602;8.722;2023-03-02T12:12:34;99653.56;;;13.73
78905;BMP280;68291;49.602;8.722;2023-03-02T12:15:41;99661.00;;;13.79
78905;BMP280;68291;49.602;8.722;2023-03-02T12:18:46;99650.13;;;13.88
78905;BMP280;68291;49.602;8.722;2023-03-02T12:21:40;99653.72;;;14.01
78905;BMP280;68291;49.602;8.722;2023-03-02T12:24:29;99655.09;;;14.06
78905;BMP280;68291;49.602;8.722;2023-03-02T12:27:25;99656.25;;;14.16
78905;BMP280;68291;49.602;8.722;2023-03-02T12:30:23;99646.66;;;14.32
78905;BMP280;68291;49.602;8.722;2023-03-02T12:33:20;99645.31;;;14.40
78905;BMP280;68291;49.602;8.722;2023-03-02T12:36:23;99643.94;;;14.49
78905;BMP280;68291;49.602;8.722;2023-03-02T12:39:51;99639.88;;;14.59
78905;BMP280;68291;49.602;8.722;2023-03-02T12:46:28;99627.97;;;14.84
78905;BMP280;68291;49.602;8.722;2023-03-02T12:49:33;99627.03;;;14.85
78905;BMP280;68291;49.602;8.722;2023-03-02T12:52:32;99624.34;;;14.86
78905;BMP280;68291;49.602;8.722;2023-03-02T12:55:30;99615.25;;;14.93
78905;BMP280;68291;49.602;8.722;2023-03-02T12:58:21;99621.44;;;15.05
78905;BMP280;68291;49.602;8.722;2023-03-02T13:01:01;99609.63;;;15.14
78905;BMP280;68291;49.602;8.722;2023-03-02T13:03:47;99611.94;;;15.19
78905;BMP280;68291;49.602;8.722;2023-03-02T13:06:30;99611.28;;;15.15
78905;BMP280;68291;49.602;8.722;2023-03-02T13:09:14;99611.94;;;15.19
78905;BMP280;68291;49.602;8.722;2023-03-02T13:12:13;99607.56;;;15.19
78905;BMP280;68291;49.602;8.722;2023-03-02T13:14:58;99605.50;;;15.24
78905;BMP280;68291;49.602;8.722;2023-03-02T13:17:40;99609.13;;;15.36
78905;BMP280;68291;49.602;8.722;2023-03-02T13:20:35;99595.66;;;15.43
78905;BMP280;68291;49.602;8.722;2023-03-02T13:23:26;99595.81;;;15.54
78905;BMP280;68291;49.602;8.722;2023-03-02T13:26:26;99595.41;;;15.60
78905;BMP280;68291;49.602;8.722;2023-03-02T13:29:04;99602.38;;;15.59
78905;BMP280;68291;49.602;8.722;2023-03-02T13:31:55;99603.81;;;15.63
78905;BMP280;68291;49.602;8.722;2023-03-02T13:34:31;99592.88;;;15.72
78905;BMP280;68291;49.602;8.722;2023-03-02T13:37:32;99595.47;;;15.84
78905;BMP280;68291;49.602;8.722;2023-03-02T13:40:40;99586.91;;;15.96
78905;BMP280;68291;49.602;8.722;2023-03-02T13:43:38;99584.47;;;16.32
78905;BMP280;68291;49.602;8.722;2023-03-02T13:46:33;99578.66;;;16.78
78905;BMP280;68291;49.602;8.722;2023-03-02T13:49:34;99569.41;;;17.34
78905;BMP280;68291;49.602;8.722;2023-03-02T13:52:24;99556.38;;;17.91
78905;BMP280;68291;49.602;8.722;2023-03-02T13:55:04;99556.06;;;18.51
78905;BMP280;68291;49.602;8.722;2023-03-02T13:57:39;99554.22;;;18.96
78905;BMP280;68291;49.602;8.722;2023-03-02T14:00:20;99550.38;;;19.33
78905;BMP280;68291;49.602;8.722;2023-03-02T14:03:26;99549.72;;;19.51
78905;BMP280;68291;49.602;8.722;2023-03-02T14:06:09;99553.31;;;19.70
78905;BMP280;68291;49.602;8.722;2023-03-02T14:08:40;99544.84;;;20.09
78905;BMP280;68291;49.602;8.722;2023-03-02T14:11:20;99544.38;;;20.44
78905;BMP280;68291;49.602;8.722;2023-03-02T14:14:01;99534.66;;;20.76
78905;BMP280;68291;49.602;8.722;2023-03-02T14:16:58;99541.91;;;21.02
78905;BMP280;68291;49.602;8.722;2023-03-02T14:19:32;99535.50;;;21.34
78905;BMP280;68291;49.602;8.722;2023-03-02T14:22:10;99534.31;;;21.75
78905;BMP280;68291;49.602;8.722;2023-03-02T14:24:47;99525.59;;;22.03
78905;BMP280;68291;49.602;8.722;2023-03-02T14:27:33;99531.00;;;22.30
78905;BMP280;68291;49.602;8.722;2023-03-02T14:30:18;99539.31;;;22.61
78905;BMP280;68291;49.602;8.722;2023-03-02T14:33:15;99537.88;;;22.76
78905;BMP280;68291;49.602;8.722;2023-03-02T14:35:56;99530.84;;;22.76
78905;BMP280;68291;49.602;8.722;2023-03-02T14:39:10;99535.78;;;22.79
78905;BMP280;68291;49.602;8.722;2023-03-02T14:41:49;99533.88;;;23.08
78905;BMP280;68291;49.602;8.722;2023-03-02T14:44:39;99542.34;;;23.29
78905;BMP280;68291;49.602;8.722;2023-03-02T14:47:27;99531.75;;;23.38
78905;BMP280;68291;49.602;8.722;2023-03-02T14:50:22;99529.94;;;23.65
78905;BMP280;68291;49.602;8.722;2023-03-02T14:53:26;99530.66;;;23.92
78905;BMP280;68291;49.602;8.722;2023-03-02T14:56:09;99520.53;;;24.22
78905;BMP280;68291;49.602;8.722;2023-03-02T14:58:54;99526.16;;;24.44
78905;BMP280;68291;49.602;8.722;2023-03-02T15:01:35;99521.47;;;24.56
78905;BMP280;68291;49.602;8.722;2023-03-02T15:04:31;99519.38;;;24.67
78905;BMP280;68291;49.602;8.722;2023-03-02T15:07:31;99523.63;;;24.60
78905;BMP280;68291;49.602;8.722;2023-03-02T15:10:20;99521.66;;;24.62
78905;BMP280;68291;49.602;8.722;2023-03-02T15:13:02;99528.53;;;24.55
78905;BMP280;68291;49.602;8.722;2023-03-02T15:15:44;99534.63;;;24.56
78905;BMP280;68291;49.602;8.722;2023-03-02T15:18:51;99531.91;;;24.73
78905;BMP280;68291;49.602;8.722;2023-03-02T15:21:40;99532.22;;;24.95
78905;BMP280;68291;49.602;8.722;2023-03-02T15:24:22;99535.94;;;25.18
78905;BMP280;68291;49.602;8.722;2023-03-02T15:27:03;99532.19;;;25.28
78905;BMP280;68291;49.602;8.722;2023-03-02T15:29:37;99534.31;;;25.17
78905;BMP280;68291;49.602;8.722;2023-03-02T15:32:19;99542.16;;;25.09
78905;BMP280;68291;49.602;8.722;2023-03-02T15:35:05;99540.22;;;25.19
78905;BMP280;68291;49.602;8.722;2023-03-02T15:37:52;99542.72;;;25.28
78905;BMP280;68291;49.602;8.722;2023-03-02T15:40:45;99535.16;;;25.33
78905;BMP280;68291;49.602;8.722;2023-03-02T15:43:32;99531.22;;;25.37
78905;BMP280;68291;49.602;8.722;2023-03-02T15:46:14;99541.75;;;25.37
78905;BMP280;68291;49.602;8.722;2023-03-02T15:49:11;99537.75;;;25.25
78905;BMP280;68291;49.602;8.722;2023-03-02T15:51:56;99540.69;;;25.07
78905;BMP280;68291;49.602;8.722;2023-03-02T15:54:42;99535.28;;;24.83
78905;BMP280;68291;49.602;8.722;2023-03-02T15:57:51;99537.47;;;24.62
78905;BMP280;68291;49.602;8.722;2023-03-02T16:00:30;99542.00;;;24.52
78905;BMP280;68291;49.602;8.722;2023-03-02T16:03:12;99539.94;;;24.39
78905;BMP280;68291;49.602;8.722;2023-03-02T16:05:49;99540.66;;;24.23
78905;BMP280;68291;49.602;8.722;2023-03-02T16:08:37;99552.63;;;23.83
78905;BMP280;68291;49.602;8.722;2023-03-02T16:11:48;99560.91;;;23.44
78905;BMP280;68291;49.602;8.722;2023-03-02T16:14:55;99551.84;;;22.76
78905;BMP280;68291;49.602;8.722;2023-03-02T16:17:45;99558.06;;;21.93
78905;BMP280;68291;49.602;8.722;2023-03-02T16:20:19;99574.50;;;21.18
78905;BMP280;68291;49.602;8.722;2023-03-02T16:22:59;99562.69;;;20.44
78905;BMP280;68291;49.602;8.722;2023-03-02T16:25:49;99571.28;;;19.64
78905;BMP280;68291;49.602;8.722;2023-03-02T16:28:35;99576.03;;;18.95